sensor_id;sensor_type;location;lat;lon;timestamp;P1;durP1;ratioP1;P2;durP2;ratioP2
80193;SDS011;69515;42.072;21.504;2024-02-16T00:00:30;6.78;;;2.45;;
80193;SDS011;69515;42.072;21.504;2024-02-16T00:02:57;5.60;;;2.85;;
80193;SDS011;69515;42.072;21.504;2024-02-16T00:05:24;5.38;;;2.42;;
80193;SDS011;69515;42.072;21.504;2024-02-16T00:07:50;5.40;;;2.38;;
80193;SDS011;69515;42.072;21.504;2024-02-16T00:10:16;5.65;;;2.20;;
80193;SDS011;69515;42.072;21.504;2024-02-16T00:12:44;5.38;;;2.78;;
80193;SDS011;69515;42.072;21.504;2024-02-16T00:15:11;4.95;;;2.42;;
80193;SDS011;69515;42.072;21.504;2024-02-16T00:17:37;5.25;;;2.50;;
80193;SDS011;69515;42.072;21.504;2024-02-16T00:20:04;5.05;;;2.22;;
80193;SDS011;69515;42.072;21.504;2024-02-16T00:22:32;6.80;;;2.65;;
80193;SDS011;69515;42.072;21.504;2024-02-16T00:24:59;4.88;;;2.40;;
80193;SDS011;69515;42.072;21.504;2024-02-16T00:27:26;5.18;;;2.17;;
80193;SDS011;69515;42.072;21.504;2024-02-16T00:29:52;7.43;;;2.40;;
80193;SDS011;69515;42.072;21.504;2024-02-16T00:32:19;5.03;;;2.58;;
80193;SDS011;69515;42.072;21.504;2024-02-16T00:34:45;5.18;;;2.40;;
80193;SDS011;69515;42.072;21.504;2024-02-16T00:37:11;5.38;;;2.60;;
80193;SDS011;69515;42.072;21.504;2024-02-16T00:39:38;5.38;;;2.42;;
80193;SDS011;69515;42.072;21.504;2024-02-16T00:42:08;6.50;;;2.22;;
80193;SDS011;69515;42.072;21.504;2024-02-16T00:47:00;8.15;;;2.80;;
80193;SDS011;69515;42.072;21.504;2024-02-16T00:51:52;5.72;;;2.75;;
80193;SDS011;69515;42.072;21.504;2024-02-16T00:54:18;4.93;;;2.38;;
80193;SDS011;69515;42.072;21.504;2024-02-16T00:56:45;6.22;;;2.67;;
80193;SDS011;69515;42.072;21.504;2024-02-16T00:59:12;5.53;;;2.90;;
80193;SDS011;69515;42.072;21.504;2024-02-16T01:01:38;9.27;;;2.42;;
80193;SDS011;69515;42.072;21.504;2024-02-16T01:04:04;4.75;;;2.50;;
80193;SDS011;69515;42.072;21.504;2024-02-16T01:06:32;5.28;;;2.60;;
80193;SDS011;69515;42.072;21.504;2024-02-16T01:11:24;5.72;;;2.08;;
80193;SDS011;69515;42.072;21.504;2024-02-16T01:13:51;5.68;;;2.75;;
80193;SDS011;69515;42.072;21.504;2024-02-16T01:16:18;6.85;;;2.55;;
80193;SDS011;69515;42.072;21.504;2024-02-16T01:18:44;4.25;;;2.17;;
80193;SDS011;69515;42.072;21.504;2024-02-16T01:21:11;5.60;;;2.58;;
80193;SDS011;69515;42.072;21.504;2024-02-16T01:26:03;5.43;;;2.70;;
80193;SDS011;69515;42.072;21.504;2024-02-16T01:28:29;6.18;;;2.20;;
80193;SDS011;69515;42.072;21.504;2024-02-16T01:30:55;5.10;;;2.30;;
80193;SDS011;69515;42.072;21.504;2024-02-16T01:33:22;6.18;;;2.60;;
80193;SDS011;69515;42.072;21.504;2024-02-16T01:35:48;6.68;;;2.53;;
80193;SDS011;69515;42.072;21.504;2024-02-16T01:38:14;6.70;;;2.67;;
80193;SDS011;69515;42.072;21.504;2024-02-16T01:40:40;5.40;;;2.72;;
80193;SDS011;69515;42.072;21.504;2024-02-16T01:43:07;4.97;;;2.40;;
80193;SDS011;69515;42.072;21.504;2024-02-16T01:45:33;4.65;;;2.40;;
80193;SDS011;69515;42.072;21.504;2024-02-16T01:47:59;5.55;;;2.80;;
80193;SDS011;69515;42.072;21.504;2024-02-16T01:50:25;5.97;;;2.90;;
80193;SDS011;69515;42.072;21.504;2024-02-16T01:52:54;6.68;;;2.80;;
80193;SDS011;69515;42.072;21.504;2024-02-16T01:55:21;5.18;;;2.20;;
80193;SDS011;69515;42.072;21.504;2024-02-16T01:57:47;5.50;;;2.45;;
80193;SDS011;69515;42.072;21.504;2024-02-16T02:00:14;4.97;;;2.22;;
80193;SDS011;69515;42.072;21.504;2024-02-16T02:02:45;5.60;;;2.28;;
80193;SDS011;69515;42.072;21.504;2024-02-16T02:05:11;5.60;;;2.45;;
80193;SDS011;69515;42.072;21.504;2024-02-16T02:07:38;5.53;;;2.47;;
80193;SDS011;69515;42.072;21.504;2024-02-16T02:10:04;4.82;;;2.30;;
80193;SDS011;69515;42.072;21.504;2024-02-16T02:12:30;5.20;;;2.30;;
80193;SDS011;69515;42.072;21.504;2024-02-16T02:14:56;5.68;;;2.22;;
80193;SDS011;69515;42.072;21.504;2024-02-16T02:17:23;10.70;;;3.05;;
80193;SDS011;69515;42.072;21.504;2024-02-16T02:19:49;6.28;;;2.50;;
80193;SDS011;69515;42.072;21.504;2024-02-16T02:22:16;5.53;;;2.40;;
80193;SDS011;69515;42.072;21.504;2024-02-16T02:24:43;4.82;;;2.17;;
80193;SDS011;69515;42.072;21.504;2024-02-16T02:27:09;6.55;;;2.30;;
80193;SDS011;69515;42.072;21.504;2024-02-16T02:29:35;5.28;;;2.60;;
80193;SDS011;69515;42.072;21.504;2024-02-16T02:32:02;5.22;;;2.38;;
80193;SDS011;69515;42.072;21.504;2024-02-16T02:34:29;5.13;;;2.42;;
80193;SDS011;69515;42.072;21.504;2024-02-16T02:36:55;4.97;;;2.40;;
80193;SDS011;69515;42.072;21.504;2024-02-16T02:39:21;4.55;;;2.30;;
80193;SDS011;69515;42.072;21.504;2024-02-16T02:41:47;4.50;;;2.25;;
80193;SDS011;69515;42.072;21.504;2024-02-16T02:44:14;5.07;;;2.53;;
80193;SDS011;69515;42.072;21.504;2024-02-16T02:46:40;6.10;;;2.63;;
80193;SDS011;69515;42.072;21.504;2024-02-16T02:49:06;5.28;;;2.55;;
80193;SDS011;69515;42.072;21.504;2024-02-16T02:51:33;7.07;;;2.63;;
80193;SDS011;69515;42.072;21.504;2024-02-16T02:53:59;5.50;;;2.58;;
80193;SDS011;69515;42.072;21.504;2024-02-16T02:56:25;4.60;;;2.78;;
80193;SDS011;69515;42.072;21.504;2024-02-16T03:01:18;5.93;;;2.50;;
80193;SDS011;69515;42.072;21.504;2024-02-16T03:03:47;6.93;;;2.90;;
80193;SDS011;69515;42.072;21.504;2024-02-16T03:06:17;6.28;;;2.83;;
80193;SDS011;69515;42.072;21.504;2024-02-16T03:08:43;5.80;;;2.95;;
80193;SDS011;69515;42.072;21.504;2024-02-16T03:13:36;7.22;;;2.97;;
80193;SDS011;69515;42.072;21.504;2024-02-16T03:16:02;8.45;;;3.08;;
80193;SDS011;69515;42.072;21.504;2024-02-16T03:20:55;5.50;;;2.47;;
80193;SDS011;69515;42.072;21.504;2024-02-16T03:23:22;6.32;;;2.63;;
80193;SDS011;69515;42.072;21.504;2024-02-16T03:25:48;4.60;;;2.30;;
80193;SDS011;69515;42.072;21.504;2024-02-16T03:28:14;5.38;;;2.50;;
80193;SDS011;69515;42.072;21.504;2024-02-16T03:30:41;5.07;;;2.30;;
80193;SDS011;69515;42.072;21.504;2024-02-16T03:33:07;6.53;;;2.67;;
80193;SDS011;69515;42.072;21.504;2024-02-16T03:35:34;6.32;;;2.97;;
80193;SDS011;69515;42.072;21.504;2024-02-16T03:38:01;5.72;;;2.60;;
80193;SDS011;69515;42.072;21.504;2024-02-16T03:42:53;5.57;;;2.42;;
80193;SDS011;69515;42.072;21.504;2024-02-16T03:45:20;5.70;;;2.97;;
80193;SDS011;69515;42.072;21.504;2024-02-16T03:47:46;4.97;;;2.47;;
80193;SDS011;69515;42.072;21.504;2024-02-16T03:50:14;7.18;;;2.72;;
80193;SDS011;69515;42.072;21.504;2024-02-16T03:52:40;7.68;;;2.80;;
80193;SDS011;69515;42.072;21.504;2024-02-16T03:55:07;6.55;;;2.67;;
80193;SDS011;69515;42.072;21.504;2024-02-16T03:57:34;5.07;;;2.40;;
80193;SDS011;69515;42.072;21.504;2024-02-16T04:00:00;6.15;;;2.75;;
80193;SDS011;69515;42.072;21.504;2024-02-16T04:02:27;6.03;;;3.10;;
80193;SDS011;69515;42.072;21.504;2024-02-16T04:04:53;6.00;;;2.58;;
80193;SDS011;69515;42.072;21.504;2024-02-16T04:07:20;4.90;;;2.33;;
80193;SDS011;69515;42.072;21.504;2024-02-16T04:09:46;4.28;;;2.00;;
80193;SDS011;69515;42.072;21.504;2024-02-16T04:12:12;5.68;;;2.75;;
80193;SDS011;69515;42.072;21.504;2024-02-16T04:17:06;7.13;;;2.50;;
80193;SDS011;69515;42.072;21.504;2024-02-16T04:19:33;6.03;;;2.47;;
80193;SDS011;69515;42.072;21.504;2024-02-16T04:21:59;5.68;;;2.60;;
80193;SDS011;69515;42.072;21.504;2024-02-16T04:24:25;6.82;;;3.05;;
80193;SDS011;69515;42.072;21.504;2024-02-16T04:26:51;5.65;;;2.47;;
80193;SDS011;69515;42.072;21.504;2024-02-16T04:29:17;5.32;;;2.65;;
80193;SDS011;69515;42.072;21.504;2024-02-16T04:31:44;6.00;;;2.80;;
80193;SDS011;69515;42.072;21.504;2024-02-16T04:34:11;5.68;;;2.60;;
80193;SDS011;69515;42.072;21.504;2024-02-16T04:39:04;5.25;;;2.67;;
80193;SDS011;69515;42.072;21.504;2024-02-16T04:41:30;6.22;;;3.35;;
80193;SDS011;69515;42.072;21.504;2024-02-16T04:43:56;5.25;;;2.70;;
80193;SDS011;69515;42.072;21.504;2024-02-16T04:46:23;10.30;;;3.33;;
80193;SDS011;69515;42.072;21.504;2024-02-16T04:48:49;7.25;;;3.10;;
80193;SDS011;69515;42.072;21.504;2024-02-16T04:51:16;5.70;;;2.58;;
80193;SDS011;69515;42.072;21.504;2024-02-16T04:53:42;6.90;;;3.05;;
80193;SDS011;69515;42.072;21.504;2024-02-16T04:56:08;6.75;;;3.33;;
80193;SDS011;69515;42.072;21.504;2024-02-16T04:58:34;8.23;;;3.92;;
80193;SDS011;69515;42.072;21.504;2024-02-16T05:01:00;7.20;;;3.03;;
80193;SDS011;69515;42.072;21.504;2024-02-16T05:03:27;5.90;;;2.85;;
80193;SDS011;69515;42.072;21.504;2024-02-16T05:05:53;5.85;;;3.15;;
80193;SDS011;69515;42.072;21.504;2024-02-16T05:08:22;6.28;;;3.25;;
80193;SDS011;69515;42.072;21.504;2024-02-16T05:10:49;5.82;;;3.10;;
80193;SDS011;69515;42.072;21.504;2024-02-16T05:13:15;7.18;;;3.33;;
80193;SDS011;69515;42.072;21.504;2024-02-16T05:15:42;7.70;;;3.53;;
80193;SDS011;69515;42.072;21.504;2024-02-16T05:18:09;6.43;;;2.80;;
80193;SDS011;69515;42.072;21.504;2024-02-16T05:20:37;6.35;;;3.08;;
80193;SDS011;69515;42.072;21.504;2024-02-16T05:23:04;5.95;;;3.08;;
80193;SDS011;69515;42.072;21.504;2024-02-16T05:25:30;6.40;;;3.30;;
80193;SDS011;69515;42.072;21.504;2024-02-16T05:27:56;6.30;;;3.30;;
80193;SDS011;69515;42.072;21.504;2024-02-16T05:30:22;5.93;;;3.20;;
80193;SDS011;69515;42.072;21.504;2024-02-16T05:32:48;6.15;;;3.47;;
80193;SDS011;69515;42.072;21.504;2024-02-16T05:35:14;6.13;;;3.20;;
80193;SDS011;69515;42.072;21.504;2024-02-16T05:37:42;6.97;;;3.15;;
80193;SDS011;69515;42.072;21.504;2024-02-16T05:40:16;8.43;;;3.50;;
80193;SDS011;69515;42.072;21.504;2024-02-16T05:42:54;13.40;;;5.35;;
80193;SDS011;69515;42.072;21.504;2024-02-16T05:45:23;10.35;;;4.55;;
80193;SDS011;69515;42.072;21.504;2024-02-16T05:47:51;8.77;;;4.05;;
80193;SDS011;69515;42.072;21.504;2024-02-16T05:50:17;9.32;;;4.38;;
80193;SDS011;69515;42.072;21.504;2024-02-16T05:52:44;6.55;;;3.90;;
80193;SDS011;69515;42.072;21.504;2024-02-16T05:55:11;5.47;;;2.65;;
80193;SDS011;69515;42.072;21.504;2024-02-16T05:57:38;6.30;;;3.13;;
80193;SDS011;69515;42.072;21.504;2024-02-16T06:00:05;8.35;;;3.60;;
80193;SDS011;69515;42.072;21.504;2024-02-16T06:02:34;7.60;;;3.55;;
80193;SDS011;69515;42.072;21.504;2024-02-16T06:05:01;6.82;;;3.17;;
80193;SDS011;69515;42.072;21.504;2024-02-16T06:07:28;6.47;;;3.35;;
80193;SDS011;69515;42.072;21.504;2024-02-16T06:12:20;6.32;;;3.45;;
80193;SDS011;69515;42.072;21.504;2024-02-16T06:14:46;6.15;;;2.97;;
80193;SDS011;69515;42.072;21.504;2024-02-16T06:17:16;5.75;;;2.85;;
80193;SDS011;69515;42.072;21.504;2024-02-16T06:19:42;6.07;;;3.38;;
80193;SDS011;69515;42.072;21.504;2024-02-16T06:22:09;7.53;;;3.78;;
80193;SDS011;69515;42.072;21.504;2024-02-16T06:27:01;6.68;;;3.10;;
80193;SDS011;69515;42.072;21.504;2024-02-16T06:29:28;6.15;;;3.20;;
80193;SDS011;69515;42.072;21.504;2024-02-16T06:31:56;6.72;;;3.60;;
80193;SDS011;69515;42.072;21.504;2024-02-16T06:34:23;7.47;;;3.50;;
80193;SDS011;69515;42.072;21.504;2024-02-16T06:36:49;5.10;;;2.78;;
80193;SDS011;69515;42.072;21.504;2024-02-16T06:39:16;5.53;;;3.38;;
80193;SDS011;69515;42.072;21.504;2024-02-16T06:41:46;5.72;;;2.88;;
80193;SDS011;69515;42.072;21.504;2024-02-16T06:44:17;5.45;;;3.03;;
80193;SDS011;69515;42.072;21.504;2024-02-16T06:46:44;8.18;;;4.20;;
80193;SDS011;69515;42.072;21.504;2024-02-16T06:49:11;7.97;;;4.35;;
80193;SDS011;69515;42.072;21.504;2024-02-16T06:51:41;11.13;;;6.25;;
80193;SDS011;69515;42.072;21.504;2024-02-16T06:54:25;14.57;;;7.90;;
80193;SDS011;69515;42.072;21.504;2024-02-16T06:56:51;9.95;;;6.25;;
80193;SDS011;69515;42.072;21.504;2024-02-16T07:01:43;8.80;;;4.95;;
80193;SDS011;69515;42.072;21.504;2024-02-16T07:04:09;12.13;;;5.40;;
80193;SDS011;69515;42.072;21.504;2024-02-16T07:06:36;9.05;;;4.68;;
80193;SDS011;69515;42.072;21.504;2024-02-16T07:09:03;14.27;;;6.93;;
80193;SDS011;69515;42.072;21.504;2024-02-16T07:11:30;13.82;;;7.43;;
80193;SDS011;69515;42.072;21.504;2024-02-16T07:14:16;19.75;;;9.20;;
80193;SDS011;69515;42.072;21.504;2024-02-16T07:16:42;14.65;;;8.35;;
80193;SDS011;69515;42.072;21.504;2024-02-16T07:19:09;14.23;;;8.05;;
80193;SDS011;69515;42.072;21.504;2024-02-16T07:21:35;18.92;;;8.98;;
80193;SDS011;69515;42.072;21.504;2024-02-16T07:24:01;16.77;;;8.35;;
80193;SDS011;69515;42.072;21.504;2024-02-16T07:26:28;13.60;;;7.85;;
80193;SDS011;69515;42.072;21.504;2024-02-16T07:28:55;17.65;;;7.90;;
80193;SDS011;69515;42.072;21.504;2024-02-16T07:31:21;15.50;;;9.05;;
80193;SDS011;69515;42.072;21.504;2024-02-16T07:33:48;15.30;;;8.55;;
80193;SDS011;69515;42.072;21.504;2024-02-16T07:36:15;14.98;;;8.82;;
80193;SDS011;69515;42.072;21.504;2024-02-16T07:38:44;20.00;;;9.80;;
80193;SDS011;69515;42.072;21.504;2024-02-16T07:41:13;14.15;;;8.98;;
80193;SDS011;69515;42.072;21.504;2024-02-16T07:43:40;16.70;;;8.88;;
80193;SDS011;69515;42.072;21.504;2024-02-16T07:46:07;15.85;;;9.07;;
80193;SDS011;69515;42.072;21.504;2024-02-16T07:48:33;18.50;;;10.45;;
80193;SDS011;69515;42.072;21.504;2024-02-16T07:51:00;16.50;;;9.48;;
80193;SDS011;69515;42.072;21.504;2024-02-16T07:53:29;20.30;;;10.90;;
80193;SDS011;69515;42.072;21.504;2024-02-16T07:55:56;17.85;;;9.55;;
80193;SDS011;69515;42.072;21.504;2024-02-16T07:58:24;17.85;;;9.70;;
80193;SDS011;69515;42.072;21.504;2024-02-16T08:00:51;16.60;;;9.73;;
80193;SDS011;69515;42.072;21.504;2024-02-16T08:03:19;18.00;;;10.23;;
80193;SDS011;69515;42.072;21.504;2024-02-16T08:05:46;21.25;;;9.57;;
80193;SDS011;69515;42.072;21.504;2024-02-16T08:08:35;16.05;;;9.60;;
80193;SDS011;69515;42.072;21.504;2024-02-16T08:11:03;12.95;;;6.95;;
80193;SDS011;69515;42.072;21.504;2024-02-16T08:13:30;12.88;;;7.05;;
80193;SDS011;69515;42.072;21.504;2024-02-16T08:15:57;15.18;;;7.53;;
80193;SDS011;69515;42.072;21.504;2024-02-16T08:18:24;12.30;;;6.40;;
80193;SDS011;69515;42.072;21.504;2024-02-16T08:20:51;13.93;;;7.63;;
80193;SDS011;69515;42.072;21.504;2024-02-16T08:23:18;12.93;;;7.28;;
80193;SDS011;69515;42.072;21.504;2024-02-16T08:25:45;12.45;;;6.95;;
80193;SDS011;69515;42.072;21.504;2024-02-16T08:28:12;19.65;;;8.30;;
80193;SDS011;69515;42.072;21.504;2024-02-16T08:30:39;13.98;;;7.95;;
80193;SDS011;69515;42.072;21.504;2024-02-16T08:33:09;17.15;;;8.73;;
80193;SDS011;69515;42.072;21.504;2024-02-16T08:35:35;14.15;;;8.07;;
80193;SDS011;69515;42.072;21.504;2024-02-16T08:38:02;13.60;;;7.78;;
80193;SDS011;69515;42.072;21.504;2024-02-16T08:40:29;17.30;;;7.57;;
80193;SDS011;69515;42.072;21.504;2024-02-16T08:42:56;15.75;;;8.50;;
80193;SDS011;69515;42.072;21.504;2024-02-16T08:45:24;16.83;;;9.50;;
80193;SDS011;69515;42.072;21.504;2024-02-16T08:47:55;13.95;;;8.93;;
80193;SDS011;69515;42.072;21.504;2024-02-16T08:50:23;15.13;;;9.10;;
80193;SDS011;69515;42.072;21.504;2024-02-16T08:52:49;15.93;;;9.30;;
80193;SDS011;69515;42.072;21.504;2024-02-16T08:55:17;14.93;;;8.88;;
80193;SDS011;69515;42.072;21.504;2024-02-16T08:58:03;14.63;;;9.00;;
80193;SDS011;69515;42.072;21.504;2024-02-16T09:00:29;14.50;;;8.10;;
80193;SDS011;69515;42.072;21.504;2024-02-16T09:02:55;13.60;;;7.80;;
80193;SDS011;69515;42.072;21.504;2024-02-16T09:05:23;16.90;;;7.78;;
80193;SDS011;69515;42.072;21.504;2024-02-16T09:07:49;12.68;;;8.25;;
80193;SDS011;69515;42.072;21.504;2024-02-16T09:10:15;13.98;;;7.82;;
80193;SDS011;69515;42.072;21.504;2024-02-16T09:12:41;16.75;;;8.80;;
80193;SDS011;69515;42.072;21.504;2024-02-16T09:15:08;14.40;;;7.85;;
80193;SDS011;69515;42.072;21.504;2024-02-16T09:17:34;22.52;;;8.93;;
80193;SDS011;69515;42.072;21.504;2024-02-16T09:20:00;18.55;;;9.13;;
80193;SDS011;69515;42.072;21.504;2024-02-16T09:22:29;16.20;;;8.10;;
80193;SDS011;69515;42.072;21.504;2024-02-16T09:24:55;12.38;;;7.65;;
80193;SDS011;69515;42.072;21.504;2024-02-16T09:27:25;13.80;;;7.97;;
80193;SDS011;69515;42.072;21.504;2024-02-16T09:29:51;15.20;;;8.07;;
80193;SDS011;69515;42.072;21.504;2024-02-16T09:32:17;14.13;;;8.70;;
80193;SDS011;69515;42.072;21.504;2024-02-16T09:34:43;17.80;;;9.18;;
80193;SDS011;69515;42.072;21.504;2024-02-16T09:37:30;13.75;;;7.53;;
80193;SDS011;69515;42.072;21.504;2024-02-16T09:39:56;14.65;;;7.32;;
80193;SDS011;69515;42.072;21.504;2024-02-16T09:42:23;11.73;;;7.10;;
80193;SDS011;69515;42.072;21.504;2024-02-16T09:44:51;15.43;;;8.00;;
80193;SDS011;69515;42.072;21.504;2024-02-16T09:47:18;14.10;;;6.55;;
80193;SDS011;69515;42.072;21.504;2024-02-16T09:49:47;11.13;;;6.57;;
80193;SDS011;69515;42.072;21.504;2024-02-16T09:52:13;8.93;;;5.80;;
80193;SDS011;69515;42.072;21.504;2024-02-16T09:54:40;12.57;;;6.97;;
80193;SDS011;69515;42.072;21.504;2024-02-16T09:57:06;13.68;;;6.82;;
80193;SDS011;69515;42.072;21.504;2024-02-16T09:59:37;14.27;;;6.40;;
80193;SDS011;69515;42.072;21.504;2024-02-16T10:02:08;12.80;;;6.72;;
80193;SDS011;69515;42.072;21.504;2024-02-16T10:04:36;13.25;;;7.25;;
80193;SDS011;69515;42.072;21.504;2024-02-16T10:07:09;12.95;;;7.97;;
80193;SDS011;69515;42.072;21.504;2024-02-16T10:10:00;10.50;;;6.03;;
80193;SDS011;69515;42.072;21.504;2024-02-16T10:12:32;11.98;;;6.78;;
80193;SDS011;69515;42.072;21.504;2024-02-16T10:15:11;13.25;;;6.65;;
80193;SDS011;69515;42.072;21.504;2024-02-16T10:20:27;13.57;;;6.78;;
80193;SDS011;69515;42.072;21.504;2024-02-16T10:23:07;13.20;;;6.57;;
80193;SDS011;69515;42.072;21.504;2024-02-16T10:25:55;11.20;;;7.00;;
80193;SDS011;69515;42.072;21.504;2024-02-16T10:28:33;13.27;;;6.70;;
80193;SDS011;69515;42.072;21.504;2024-02-16T10:31:04;11.90;;;6.35;;
80193;SDS011;69515;42.072;21.504;2024-02-16T10:33:31;10.07;;;5.35;;
80193;SDS011;69515;42.072;21.504;2024-02-16T10:35:59;11.00;;;6.13;;
80193;SDS011;69515;42.072;21.504;2024-02-16T10:38:27;10.77;;;6.50;;
80193;SDS011;69515;42.072;21.504;2024-02-16T10:40:56;8.85;;;5.07;;
80193;SDS011;69515;42.072;21.504;2024-02-16T10:43:29;8.35;;;4.45;;
80193;SDS011;69515;42.072;21.504;2024-02-16T10:48:54;9.25;;;4.65;;
80193;SDS011;69515;42.072;21.504;2024-02-16T10:51:42;10.13;;;4.95;;
80193;SDS011;69515;42.072;21.504;2024-02-16T10:54:11;8.82;;;4.40;;
80193;SDS011;69515;42.072;21.504;2024-02-16T10:56:58;8.20;;;5.13;;
80193;SDS011;69515;42.072;21.504;2024-02-16T10:59:26;8.40;;;3.97;;
80193;SDS011;69515;42.072;21.504;2024-02-16T11:02:00;9.43;;;4.28;;
80193;SDS011;69515;42.072;21.504;2024-02-16T11:04:37;7.45;;;4.00;;
80193;SDS011;69515;42.072;21.504;2024-02-16T11:09:51;8.65;;;4.18;;
80193;SDS011;69515;42.072;21.504;2024-02-16T11:12:17;7.22;;;4.03;;
80193;SDS011;69515;42.072;21.504;2024-02-16T11:56:34;9.57;;;6.07;;
80193;SDS011;69515;42.072;21.504;2024-02-16T11:59:04;10.35;;;5.18;;
80193;SDS011;69515;42.072;21.504;2024-02-16T12:01:47;9.50;;;5.57;;
80193;SDS011;69515;42.072;21.504;2024-02-16T12:04:21;9.02;;;5.22;;
80193;SDS011;69515;42.072;21.504;2024-02-16T12:06:47;10.57;;;5.43;;
80193;SDS011;69515;42.072;21.504;2024-02-16T12:12:33;8.93;;;5.03;;
80193;SDS011;69515;42.072;21.504;2024-02-16T12:17:57;7.47;;;4.85;;
80193;SDS011;69515;42.072;21.504;2024-02-16T12:23:28;8.40;;;4.93;;
80193;SDS011;69515;42.072;21.504;2024-02-16T12:25:57;8.73;;;4.90;;
80193;SDS011;69515;42.072;21.504;2024-02-16T12:28:24;8.30;;;4.70;;
80193;SDS011;69515;42.072;21.504;2024-02-16T12:30:51;8.93;;;5.20;;
80193;SDS011;69515;42.072;21.504;2024-02-16T12:33:37;8.52;;;5.00;;
80193;SDS011;69515;42.072;21.504;2024-02-16T12:36:03;8.52;;;5.07;;
80193;SDS011;69515;42.072;21.504;2024-02-16T12:38:29;7.18;;;4.40;;
80193;SDS011;69515;42.072;21.504;2024-02-16T12:40:57;10.43;;;5.10;;
80193;SDS011;69515;42.072;21.504;2024-02-16T12:43:23;8.02;;;4.75;;
80193;SDS011;69515;42.072;21.504;2024-02-16T12:45:52;8.50;;;5.15;;
80193;SDS011;69515;42.072;21.504;2024-02-16T12:48:38;10.82;;;5.13;;
80193;SDS011;69515;42.072;21.504;2024-02-16T12:51:26;7.35;;;4.18;;
80193;SDS011;69515;42.072;21.504;2024-02-16T13:00:14;12.27;;;6.05;;
80193;SDS011;69515;42.072;21.504;2024-02-16T13:02:40;7.60;;;5.28;;
80193;SDS011;69515;42.072;21.504;2024-02-16T13:08:02;8.82;;;5.43;;
80193;SDS011;69515;42.072;21.504;2024-02-16T13:10:30;7.28;;;4.93;;
80193;SDS011;69515;42.072;21.504;2024-02-16T13:12:57;8.70;;;5.03;;
80193;SDS011;69515;42.072;21.504;2024-02-16T13:21:36;12.95;;;5.50;;
80193;SDS011;69515;42.072;21.504;2024-02-16T13:24:03;9.43;;;4.80;;
80193;SDS011;69515;42.072;21.504;2024-02-16T13:26:30;8.82;;;5.03;;
80193;SDS011;69515;42.072;21.504;2024-02-16T13:28:57;9.57;;;5.18;;
80193;SDS011;69515;42.072;21.504;2024-02-16T13:31:24;12.90;;;4.85;;
80193;SDS011;69515;42.072;21.504;2024-02-16T13:33:52;9.38;;;4.88;;
80193;SDS011;69515;42.072;21.504;2024-02-16T13:36:19;10.63;;;4.90;;
80193;SDS011;69515;42.072;21.504;2024-02-16T13:39:06;7.88;;;4.32;;
80193;SDS011;69515;42.072;21.504;2024-02-16T13:41:33;9.57;;;4.43;;
80193;SDS011;69515;42.072;21.504;2024-02-16T13:43:59;8.98;;;4.63;;
80193;SDS011;69515;42.072;21.504;2024-02-16T13:46:26;9.32;;;5.07;;
80193;SDS011;69515;42.072;21.504;2024-02-16T13:48:54;9.30;;;5.13;;
80193;SDS011;69515;42.072;21.504;2024-02-16T13:51:21;8.30;;;4.70;;
80193;SDS011;69515;42.072;21.504;2024-02-16T13:53:49;9.75;;;4.43;;
80193;SDS011;69515;42.072;21.504;2024-02-16T13:56:16;10.70;;;5.00;;
80193;SDS011;69515;42.072;21.504;2024-02-16T13:58:43;7.90;;;4.47;;
80193;SDS011;69515;42.072;21.504;2024-02-16T14:01:09;9.00;;;4.85;;
80193;SDS011;69515;42.072;21.504;2024-02-16T14:06:45;6.85;;;4.00;;
80193;SDS011;69515;42.072;21.504;2024-02-16T14:09:32;9.82;;;4.70;;
80193;SDS011;69515;42.072;21.504;2024-02-16T14:15:05;12.38;;;5.75;;
80193;SDS011;69515;42.072;21.504;2024-02-16T14:17:32;10.95;;;5.13;;
80193;SDS011;69515;42.072;21.504;2024-02-16T14:19:58;8.27;;;4.57;;
80193;SDS011;69515;42.072;21.504;2024-02-16T14:22:24;9.52;;;4.25;;
80193;SDS011;69515;42.072;21.504;2024-02-16T14:24:53;8.32;;;4.97;;
80193;SDS011;69515;42.072;21.504;2024-02-16T14:27:20;10.07;;;4.68;;
80193;SDS011;69515;42.072;21.504;2024-02-16T14:29:46;8.05;;;4.65;;
80193;SDS011;69515;42.072;21.504;2024-02-16T14:32:13;10.32;;;5.10;;
80193;SDS011;69515;42.072;21.504;2024-02-16T14:34:40;13.13;;;5.95;;
80193;SDS011;69515;42.072;21.504;2024-02-16T14:37:10;13.40;;;5.97;;
80193;SDS011;69515;42.072;21.504;2024-02-16T14:40:00;8.80;;;4.93;;
80193;SDS011;69515;42.072;21.504;2024-02-16T14:42:28;10.27;;;5.07;;
80193;SDS011;69515;42.072;21.504;2024-02-16T14:44:55;16.15;;;5.47;;
80193;SDS011;69515;42.072;21.504;2024-02-16T14:47:22;10.75;;;5.13;;
80193;SDS011;69515;42.072;21.504;2024-02-16T14:49:48;14.90;;;5.57;;
80193;SDS011;69515;42.072;21.504;2024-02-16T14:52:20;10.95;;;5.28;;
80193;SDS011;69515;42.072;21.504;2024-02-16T14:57:44;12.82;;;5.70;;
80193;SDS011;69515;42.072;21.504;2024-02-16T15:00:10;11.77;;;5.93;;
80193;SDS011;69515;42.072;21.504;2024-02-16T15:02:37;11.00;;;5.57;;
80193;SDS011;69515;42.072;21.504;2024-02-16T15:05:04;12.65;;;5.50;;
80193;SDS011;69515;42.072;21.504;2024-02-16T15:07:31;9.95;;;6.50;;
80193;SDS011;69515;42.072;21.504;2024-02-16T15:10:10;10.07;;;5.97;;
80193;SDS011;69515;42.072;21.504;2024-02-16T15:12:36;11.40;;;6.10;;
80193;SDS011;69515;42.072;21.504;2024-02-16T15:15:05;9.07;;;5.55;;
80193;SDS011;69515;42.072;21.504;2024-02-16T15:17:31;9.13;;;5.25;;
80193;SDS011;69515;42.072;21.504;2024-02-16T15:19:57;12.65;;;6.68;;
80193;SDS011;69515;42.072;21.504;2024-02-16T15:22:24;9.90;;;6.18;;
80193;SDS011;69515;42.072;21.504;2024-02-16T15:24:51;11.40;;;5.50;;
80193;SDS011;69515;42.072;21.504;2024-02-16T15:27:17;10.23;;;4.85;;
80193;SDS011;69515;42.072;21.504;2024-02-16T15:29:43;8.02;;;4.50;;
80193;SDS011;69515;42.072;21.504;2024-02-16T15:32:10;11.00;;;5.32;;
80193;SDS011;69515;42.072;21.504;2024-02-16T15:34:36;8.38;;;4.75;;
80193;SDS011;69515;42.072;21.504;2024-02-16T15:37:02;9.27;;;6.00;;
80193;SDS011;69515;42.072;21.504;2024-02-16T15:39:29;13.20;;;8.73;;
80193;SDS011;69515;42.072;21.504;2024-02-16T15:41:55;9.23;;;5.63;;
80193;SDS011;69515;42.072;21.504;2024-02-16T15:44:21;8.95;;;5.97;;
80193;SDS011;69515;42.072;21.504;2024-02-16T15:46:47;9.25;;;6.28;;
80193;SDS011;69515;42.072;21.504;2024-02-16T15:49:13;9.23;;;5.47;;
80193;SDS011;69515;42.072;21.504;2024-02-16T15:51:40;10.50;;;6.20;;
80193;SDS011;69515;42.072;21.504;2024-02-16T15:54:06;8.02;;;4.90;;
80193;SDS011;69515;42.072;21.504;2024-02-16T15:56:32;9.57;;;4.90;;
80193;SDS011;69515;42.072;21.504;2024-02-16T15:58:58;8.25;;;4.80;;
80193;SDS011;69515;42.072;21.504;2024-02-16T16:01:27;11.57;;;5.38;;
80193;SDS011;69515;42.072;21.504;2024-02-16T16:03:54;8.68;;;4.93;;
80193;SDS011;69515;42.072;21.504;2024-02-16T16:06:21;9.15;;;5.05;;
80193;SDS011;69515;42.072;21.504;2024-02-16T16:08:47;9.55;;;6.13;;
80193;SDS011;69515;42.072;21.504;2024-02-16T16:11:14;13.82;;;8.70;;
80193;SDS011;69515;42.072;21.504;2024-02-16T16:13:40;11.35;;;7.05;;
80193;SDS011;69515;42.072;21.504;2024-02-16T16:16:06;9.25;;;6.28;;
80193;SDS011;69515;42.072;21.504;2024-02-16T16:18:33;8.85;;;5.13;;
80193;SDS011;69515;42.072;21.504;2024-02-16T16:21:03;8.63;;;4.30;;
80193;SDS011;69515;42.072;21.504;2024-02-16T16:23:30;7.63;;;4.82;;
80193;SDS011;69515;42.072;21.504;2024-02-16T16:25:57;10.48;;;4.50;;
80193;SDS011;69515;42.072;21.504;2024-02-16T16:28:24;8.70;;;4.85;;
80193;SDS011;69515;42.072;21.504;2024-02-16T16:30:50;7.93;;;5.00;;